Aviation Digital Data Service (ADDS)

Output produced by METARs form (1806 UTC 19 October 2017)
found at http://www.aviationweather.gov/adds/metars/
 
LHSM 191545Z 32004KT 3200 BR NSC 14/11 Q1017 BECMG 6000 NSW NSC
TAF LHSM 191115Z 1912/1921 31007KT 4000 BR OVC010 
     TEMPO 1912/1915 7000 NSW BKN016 
     BECMG 1916/1919 VRB02KT 0800 FG OVC005
       
LHBC 191745Z 15002KT CAVOK 13/07 Q1017
LHBP 191800Z 31005KT 6000 NSC 11/11 Q1017 NOSIG
TAF LHBP 191715Z 1918/2018 31005KT 7000 NSC 
     TEMPO 1920/1922 VRB03KT 4000 BR 
     BECMG 1922/1924 VRB03KT 3000 BR BCFG FEW001 
     TEMPO 2000/2009 0300 FG VV001 
     BECMG 2009/2011 18005KT 5000 BR NSC 
     BECMG 2011/2013 CAVOK 
     BECMG 2015/2017 VRB03KT
       
LHDC 191745Z 14001KT CAVOK 12/07 Q1016 NOSIG
TAF LHDC 191715Z 1918/2003 VRB02KT CAVOK 
     BECMG 1920/1923 5000 BR 
     TEMPO 1923/2003 2000 BR
       
LHKE 191745Z 00000KT 6000 MIBCFG FEW200 11/10 Q1016 TEMPO 5000 BR MIBCFG RMK WHT
TAF LHKE 191715Z 1918/2003 VRB03KT 8000 NSC 
     BECMG 1918/1921 5000 BR MIBCFG NSC 
     BECMG 1921/1924 1500 BR MIBCFG 
     BECMG 2000/2003 0600 FG
       
LHPA 191745Z 14002KT 1200 R34/P1500 BR MIFG NSC 10/09 Q1017 BECMG 0800 FG RMK AMB
TAF LHPA 191715Z 1918/2018 VRB03KT 0800 FG NSC 
     BECMG 1918/1919 0600 FG 
     TEMPO 1919/2007 0150 FG BKN002 
     BECMG 2007/2010 20008KT 6000 NSW SCT015 
     BECMG 2010/2013 CAVOK
       
LHPP 191645Z 31005KT CAVOK 17/08 Q1017
TAF LHPP 191415Z 1915/1924 28006KT CAVOK 
     BECMG 1916/1919 VRB01KT 
     TEMPO 1921/1924 5000 BR
       
LHPR 191745Z AUTO 26004KT 230V290 5000 BR NCD 11/11 Q1017 RMK WHT
TAF LHPR 191715Z 1918/2003 VRB03KT 6000 NSC 
     BECMG 1918/1920 3000 BR BKN015 
     BECMG 1920/1922 0500 FG OVC005 
     TEMPO 1922/2003 0200 FG VV002
       
LHSM 191545Z 32004KT 3200 BR NSC 14/11 Q1017 BECMG 6000 NSW NSC
TAF LHSM 191115Z 1912/1921 31007KT 4000 BR OVC010 
     TEMPO 1912/1915 7000 NSW BKN016 
     BECMG 1916/1919 VRB02KT 0800 FG OVC005
       
LHSN 191745Z 27002KT CAVOK 14/10 Q1016 NOSIG RMK BLU
TAF LHSN 191715Z 1918/2003 27004KT CAVOK 
     BECMG 1922/1924 VRB02KT 6000 NSC 
     BECMG 2001/2003 3000 BR
       
LHUD 191745Z 26003KT CAVOK 14/06 Q1017
LHDC 191745Z 14001KT CAVOK 12/07 Q1016 NOSIG
TAF LHDC 191715Z 1918/2003 VRB02KT CAVOK 
     BECMG 1920/1923 5000 BR 
     TEMPO 1923/2003 2000 BR
       
LHBP 191800Z 31005KT 6000 NSC 11/11 Q1017 NOSIG
TAF LHBP 191715Z 1918/2018 31005KT 7000 NSC 
     TEMPO 1920/1922 VRB03KT 4000 BR 
     BECMG 1922/1924 VRB03KT 3000 BR BCFG FEW001 
     TEMPO 2000/2009 0300 FG VV001 
     BECMG 2009/2011 18005KT 5000 BR NSC 
     BECMG 2011/2013 CAVOK 
     BECMG 2015/2017 VRB03KT
       
LHKE 191745Z 00000KT 6000 MIBCFG FEW200 11/10 Q1016 TEMPO 5000 BR MIBCFG RMK WHT
TAF LHKE 191715Z 1918/2003 VRB03KT 8000 NSC 
     BECMG 1918/1921 5000 BR MIBCFG NSC 
     BECMG 1921/1924 1500 BR MIBCFG 
     BECMG 2000/2003 0600 FG
       
LHPA 191745Z 14002KT 1200 R34/P1500 BR MIFG NSC 10/09 Q1017 BECMG 0800 FG RMK AMB
TAF LHPA 191715Z 1918/2018 VRB03KT 0800 FG NSC 
     BECMG 1918/1919 0600 FG 
     TEMPO 1919/2007 0150 FG BKN002 
     BECMG 2007/2010 20008KT 6000 NSW SCT015 
     BECMG 2010/2013 CAVOK
       
LHSN 191745Z 27002KT CAVOK 14/10 Q1016 NOSIG RMK BLU
TAF LHSN 191715Z 1918/2003 27004KT CAVOK 
     BECMG 1922/1924 VRB02KT 6000 NSC 
     BECMG 2001/2003 3000 BR